createdAt,value
2022-12-16T00:04:46.950Z,0.00
2022-12-16T00:09:46.895Z,0.00
2022-12-16T00:14:46.825Z,0.00
2022-12-16T00:19:46.771Z,0.00
2022-12-16T00:24:46.704Z,0.00
2022-12-16T00:29:46.650Z,0.00
2022-12-16T00:34:46.581Z,0.00
2022-12-16T00:39:46.528Z,0.00
2022-12-16T00:44:46.461Z,0.00
2022-12-16T00:49:46.408Z,0.00
2022-12-16T00:54:46.335Z,0.00
2022-12-16T00:59:46.285Z,0.00
2022-12-16T01:04:46.216Z,0.00
2022-12-16T01:09:46.165Z,0.00
2022-12-16T01:14:46.094Z,0.00
2022-12-16T01:19:46.040Z,0.00
2022-12-16T01:24:45.973Z,0.00
2022-12-16T01:29:45.919Z,0.00
2022-12-16T01:34:49.693Z,0.00
2022-12-16T01:39:45.802Z,0.00
2022-12-16T01:44:45.730Z,0.00
2022-12-16T01:49:45.677Z,0.00
2022-12-16T01:54:45.610Z,0.00
2022-12-16T01:59:45.558Z,0.00
2022-12-16T02:04:45.489Z,0.00
2022-12-16T02:09:45.436Z,0.00
2022-12-16T02:14:45.367Z,0.00
2022-12-16T02:19:45.314Z,0.00
2022-12-16T02:24:45.247Z,0.00
2022-12-16T02:29:45.193Z,0.00
2022-12-16T02:34:45.124Z,0.00
2022-12-16T02:39:45.070Z,0.00
2022-12-16T02:44:45.000Z,0.00
2022-12-16T02:49:44.946Z,0.00
2022-12-16T02:54:44.881Z,0.00
2022-12-16T02:59:44.831Z,0.00
2022-12-16T03:04:44.757Z,0.00
2022-12-16T03:09:44.705Z,0.00
2022-12-16T03:14:44.636Z,0.00
2022-12-16T03:19:44.583Z,0.00
2022-12-16T03:24:44.513Z,0.00
2022-12-16T03:29:44.459Z,0.00
2022-12-16T03:34:44.392Z,0.00
2022-12-16T03:39:44.337Z,0.00
2022-12-16T03:44:44.272Z,0.00
2022-12-16T03:49:44.216Z,0.00
2022-12-16T03:54:44.148Z,0.00
2022-12-16T03:59:44.094Z,0.00
2022-12-16T04:04:44.026Z,0.00
2022-12-16T04:09:43.977Z,0.00
2022-12-16T04:14:46.794Z,0.00
2022-12-16T04:19:43.855Z,0.00
2022-12-16T04:24:43.785Z,0.00
2022-12-16T04:29:43.733Z,0.00
2022-12-16T04:34:43.660Z,0.00
2022-12-16T04:39:43.610Z,0.00
2022-12-16T04:44:43.546Z,0.00
2022-12-16T04:49:43.492Z,0.00
2022-12-16T04:54:43.421Z,0.00
2022-12-16T04:59:43.366Z,0.00
2022-12-16T05:04:43.299Z,0.00
2022-12-16T05:09:43.247Z,0.00
2022-12-16T05:14:43.181Z,0.00
2022-12-16T05:19:43.126Z,0.00
2022-12-16T05:24:44.585Z,0.00
2022-12-16T05:29:43.005Z,0.00
2022-12-16T05:34:42.936Z,0.00
2022-12-16T05:39:42.884Z,0.00
2022-12-16T05:44:42.816Z,0.00
2022-12-16T05:49:42.766Z,0.00
2022-12-16T05:54:42.699Z,0.00
2022-12-16T05:59:42.644Z,0.00
2022-12-16T06:04:42.599Z,0.00
2022-12-16T06:09:42.524Z,0.00
2022-12-16T06:14:42.456Z,0.00
2022-12-16T06:19:42.405Z,0.00
2022-12-16T06:24:42.336Z,0.00
2022-12-16T06:29:42.283Z,0.00
2022-12-16T06:34:42.216Z,0.00
2022-12-16T06:39:42.164Z,0.00
2022-12-16T06:44:42.095Z,0.00
2022-12-16T06:49:42.046Z,0.00
2022-12-16T06:54:41.974Z,0.00
2022-12-16T06:59:41.923Z,5.62
2022-12-16T07:04:41.859Z,11.25
2022-12-16T07:09:41.802Z,16.87
2022-12-16T07:14:41.732Z,28.12
2022-12-16T07:19:41.683Z,39.37
2022-12-16T07:24:41.609Z,56.25
2022-12-16T07:29:41.556Z,67.50
2022-12-16T07:34:45.884Z,78.75
2022-12-16T07:39:41.435Z,90.00
2022-12-16T07:44:41.369Z,106.87
2022-12-16T07:49:41.314Z,123.75
2022-12-16T07:54:41.260Z,135.00
2022-12-16T07:59:41.192Z,146.25
2022-12-16T08:04:41.126Z,157.50
2022-12-16T08:09:41.068Z,168.75
2022-12-16T08:14:41.001Z,185.62
2022-12-16T08:19:40.946Z,286.87
2022-12-16T08:24:40.877Z,241.87
2022-12-16T08:29:45.193Z,326.25
2022-12-16T08:34:40.757Z,202.50
2022-12-16T08:39:40.702Z,331.87
2022-12-16T08:44:40.638Z,450.00
2022-12-16T08:49:40.585Z,641.25
2022-12-16T08:54:40.516Z,236.25
2022-12-16T08:59:40.460Z,562.50
2022-12-16T09:04:40.392Z,511.87
2022-12-16T09:09:40.339Z,781.87
2022-12-16T09:14:40.269Z,568.12
2022-12-16T09:19:40.215Z,933.75
2022-12-16T09:24:40.152Z,725.62
2022-12-16T09:29:43.613Z,860.62
2022-12-16T09:34:40.018Z,1051.87
2022-12-16T09:39:39.963Z,1552.50
2022-12-16T09:44:39.895Z,1636.87
2022-12-16T09:49:39.838Z,1541.25
2022-12-16T09:54:39.775Z,1676.25
2022-12-16T09:59:39.710Z,1783.12
2022-12-16T10:04:39.642Z,1715.62
2022-12-16T10:09:39.582Z,1800.00
2022-12-16T10:14:39.510Z,1822.50
2022-12-16T10:19:39.451Z,1777.50
2022-12-16T10:24:39.378Z,1783.12
2022-12-16T10:29:39.329Z,1704.37
2022-12-16T10:34:39.249Z,1710.00
2022-12-16T10:39:39.187Z,1603.12
2022-12-16T10:44:39.114Z,1665.00
2022-12-16T10:49:39.189Z,1704.37
2022-12-16T10:54:38.986Z,1676.25
2022-12-16T10:59:38.928Z,1721.25
2022-12-16T11:04:44.294Z,1867.50
2022-12-16T11:09:38.800Z,1462.50
2022-12-16T11:14:38.727Z,1659.37
2022-12-16T11:19:38.663Z,1276.87
2022-12-16T11:24:38.590Z,1130.62
2022-12-16T11:29:38.532Z,1091.25
2022-12-16T11:34:38.464Z,1035.00
2022-12-16T11:39:38.402Z,956.25
2022-12-16T11:44:38.328Z,916.87
2022-12-16T11:49:38.273Z,945.00
2022-12-16T11:54:38.202Z,866.25
2022-12-16T11:59:38.148Z,838.12
2022-12-16T12:04:38.176Z,883.12
2022-12-16T12:09:38.029Z,866.25
2022-12-16T12:14:37.945Z,961.87
2022-12-16T12:19:43.633Z,1102.50
2022-12-16T12:24:37.818Z,1254.37
2022-12-16T12:29:37.760Z,630.00
2022-12-16T12:34:37.687Z,495.00
2022-12-16T12:39:37.630Z,472.50
2022-12-16T12:44:48.511Z,433.12
2022-12-16T12:49:38.528Z,343.12
2022-12-16T12:54:37.433Z,320.62
2022-12-16T12:59:37.380Z,292.50
2022-12-16T13:04:37.318Z,286.87
2022-12-16T13:09:37.256Z,286.87
2022-12-16T13:14:37.184Z,202.50
2022-12-16T13:19:37.129Z,180.00
2022-12-16T13:24:37.057Z,236.25
2022-12-16T13:29:37.000Z,225.00
2022-12-16T13:34:36.931Z,213.75
2022-12-16T13:39:36.877Z,191.25
2022-12-16T13:44:36.805Z,174.37
2022-12-16T13:49:36.747Z,168.75
2022-12-16T13:54:36.680Z,163.12
2022-12-16T13:59:36.743Z,151.87
2022-12-16T14:04:36.552Z,140.62
2022-12-16T14:09:36.497Z,129.37
2022-12-16T14:14:36.425Z,106.87
2022-12-16T14:19:36.373Z,95.62
2022-12-16T14:24:36.300Z,90.00
2022-12-16T14:29:36.247Z,78.75
2022-12-16T14:34:36.178Z,61.87
2022-12-16T14:39:36.121Z,50.62
2022-12-16T14:44:36.049Z,45.00
2022-12-16T14:49:35.997Z,39.37
2022-12-16T14:54:35.936Z,28.12
2022-12-16T14:59:35.871Z,22.50
2022-12-16T15:04:36.009Z,16.87
2022-12-16T15:09:35.744Z,11.25
2022-12-16T15:14:35.676Z,5.62
2022-12-16T15:19:35.620Z,0.00
2022-12-16T15:24:35.554Z,0.00
2022-12-16T15:29:35.638Z,0.00
2022-12-16T15:34:35.437Z,0.00
2022-12-16T15:39:35.373Z,0.00
2022-12-16T15:44:35.302Z,0.00
2022-12-16T15:49:35.248Z,0.00
2022-12-16T15:54:35.255Z,0.00
2022-12-16T15:59:35.120Z,0.00
2022-12-16T16:04:35.051Z,0.00
2022-12-16T16:09:34.997Z,0.00
2022-12-16T16:14:34.925Z,0.00
2022-12-16T16:19:34.876Z,0.00
2022-12-16T16:24:34.803Z,0.00
2022-12-16T16:29:34.752Z,0.00
2022-12-16T16:34:34.679Z,0.00
2022-12-16T16:39:34.627Z,0.00
2022-12-16T16:44:34.555Z,0.00
2022-12-16T16:49:34.501Z,0.00
2022-12-16T16:54:34.591Z,0.00
2022-12-16T16:59:34.379Z,0.00
2022-12-16T17:04:34.428Z,0.00
2022-12-16T17:09:34.256Z,0.00
2022-12-16T17:14:34.188Z,0.00
2022-12-16T17:19:34.136Z,0.00
2022-12-16T17:24:34.279Z,0.00
2022-12-16T17:29:34.014Z,0.00
2022-12-16T17:34:33.941Z,0.00
2022-12-16T17:39:33.889Z,0.00
2022-12-16T17:44:33.819Z,0.00
2022-12-16T17:49:33.768Z,0.00
2022-12-16T17:54:33.695Z,0.00
2022-12-16T17:59:33.643Z,0.00
2022-12-16T18:04:33.572Z,0.00
2022-12-16T18:09:33.522Z,0.00
2022-12-16T18:14:33.449Z,0.00
2022-12-16T18:19:33.389Z,0.00
2022-12-16T18:24:33.336Z,0.00
2022-12-16T18:29:33.266Z,0.00
2022-12-16T18:34:33.212Z,0.00
2022-12-16T18:39:33.143Z,0.00
2022-12-16T18:44:33.094Z,0.00
2022-12-16T18:49:33.033Z,0.00
2022-12-16T18:54:32.968Z,0.00
2022-12-16T18:59:32.895Z,0.00
2022-12-16T19:04:32.842Z,0.00
2022-12-16T19:09:32.771Z,0.00
2022-12-16T19:14:32.722Z,0.00
2022-12-16T19:19:32.648Z,0.00
2022-12-16T19:24:32.630Z,0.00
2022-12-16T19:29:32.524Z,0.00
2022-12-16T19:34:32.471Z,0.00
2022-12-16T19:39:32.406Z,0.00
2022-12-16T19:44:32.348Z,0.00
2022-12-16T19:49:32.281Z,0.00
2022-12-16T19:54:32.226Z,0.00
2022-12-16T19:59:32.158Z,0.00
2022-12-16T20:04:32.107Z,0.00
2022-12-16T20:09:32.037Z,0.00
2022-12-16T20:14:31.979Z,0.00
2022-12-16T20:19:31.917Z,0.00
2022-12-16T20:24:31.858Z,0.00
2022-12-16T20:29:31.789Z,0.00
2022-12-16T20:34:31.733Z,0.00
2022-12-16T20:39:31.664Z,0.00
2022-12-16T20:44:31.620Z,0.00
2022-12-16T20:49:31.545Z,0.00
2022-12-16T20:54:31.487Z,0.00
2022-12-16T20:59:31.418Z,0.00
2022-12-16T21:04:31.376Z,0.00
2022-12-16T21:09:31.497Z,0.00
2022-12-16T21:14:31.240Z,0.00
2022-12-16T21:24:32.147Z,0.00
2022-12-16T21:29:31.045Z,0.00
2022-12-16T21:34:30.994Z,0.00
2022-12-16T21:39:30.925Z,0.00
2022-12-16T21:44:30.868Z,0.00
2022-12-16T21:49:30.800Z,0.00
2022-12-16T21:54:30.744Z,0.00
2022-12-16T21:59:30.673Z,0.00
2022-12-16T22:04:30.618Z,0.00
2022-12-16T22:09:30.545Z,0.00
2022-12-16T22:14:30.491Z,0.00
2022-12-16T22:19:30.421Z,0.00
2022-12-16T22:24:30.372Z,0.00
2022-12-16T22:29:30.297Z,0.00
2022-12-16T22:34:30.247Z,0.00
2022-12-16T22:39:30.174Z,0.00
2022-12-16T22:44:30.119Z,0.00
2022-12-16T22:49:30.048Z,0.00
2022-12-16T22:54:29.993Z,0.00
2022-12-16T22:59:29.924Z,0.00
2022-12-16T23:04:30.004Z,0.00
2022-12-16T23:09:29.803Z,0.00
2022-12-16T23:14:29.746Z,0.00
2022-12-16T23:19:29.675Z,0.00
2022-12-16T23:24:29.622Z,0.00
2022-12-16T23:29:29.554Z,0.00
2022-12-16T23:32:30.550Z,0.00
2022-12-16T23:34:29.499Z,0.00
2022-12-16T23:39:29.430Z,0.00
2022-12-16T23:44:29.376Z,0.00
2022-12-16T23:49:29.310Z,0.00
2022-12-16T23:54:29.248Z,0.00
2022-12-16T23:59:29.179Z,0.00
